createdAt,value
2018-12-24T00:00:34.979Z,6.25
2018-12-24T00:03:03.776Z,6.30
2018-12-24T00:05:32.798Z,6.32
2018-12-24T00:08:01.477Z,6.28
2018-12-24T00:10:30.219Z,6.24
2018-12-24T00:12:59.726Z,6.21
2018-12-24T00:15:28.444Z,6.17
2018-12-24T00:17:57.149Z,6.15
2018-12-24T00:20:26.164Z,6.15
2018-12-24T00:22:58.297Z,6.12
2018-12-24T00:25:27.067Z,6.12
2018-12-24T00:27:56.139Z,6.08
2018-12-24T00:30:23.848Z,6.04
2018-12-24T00:32:51.567Z,6.04
2018-12-24T00:35:19.653Z,6.04
2018-12-24T00:37:50.788Z,6.04
2018-12-24T00:40:18.632Z,6.00
2018-12-24T00:42:48.926Z,6.00
2018-12-24T00:45:16.709Z,5.97
2018-12-24T00:47:44.847Z,5.97
2018-12-24T00:50:12.880Z,5.96
2018-12-24T00:52:40.672Z,5.96
2018-12-24T00:55:08.408Z,5.96
2018-12-24T00:57:36.429Z,5.97
2018-12-24T01:00:04.271Z,6.02
2018-12-24T01:02:32.053Z,6.03
2018-12-24T01:05:00.158Z,6.03
2018-12-24T01:07:28.033Z,6.06
2018-12-24T01:09:55.797Z,6.06
2018-12-24T01:12:24.701Z,6.05
2018-12-24T01:14:52.809Z,6.04
2018-12-24T01:17:20.604Z,6.04
2018-12-24T01:19:48.567Z,6.03
2018-12-24T01:22:16.291Z,6.03
2018-12-24T01:24:44.073Z,6.01
2018-12-24T01:27:11.834Z,6.00
2018-12-24T01:29:39.629Z,6.01
2018-12-24T01:32:07.688Z,5.99
2018-12-24T01:34:35.428Z,5.99
2018-12-24T01:37:03.237Z,5.96
2018-12-24T01:39:31.258Z,5.94
2018-12-24T01:41:59.115Z,5.94
2018-12-24T01:44:26.839Z,5.94
2018-12-24T01:46:54.837Z,5.95
2018-12-24T01:49:22.652Z,5.95
2018-12-24T01:51:51.858Z,5.95
2018-12-24T01:54:19.940Z,5.90
2018-12-24T01:56:47.772Z,5.89
2018-12-24T01:59:16.838Z,5.89
2018-12-24T02:01:44.819Z,5.89
2018-12-24T02:04:12.822Z,5.88
2018-12-24T02:06:40.585Z,5.88
2018-12-24T02:09:08.373Z,5.88
2018-12-24T02:11:36.197Z,5.88
2018-12-24T02:14:04.238Z,5.90
2018-12-24T02:16:31.985Z,5.92
2018-12-24T02:19:00.231Z,5.93
2018-12-24T02:21:28.426Z,5.95
2018-12-24T02:23:56.337Z,5.95
2018-12-24T02:26:24.724Z,5.97
2018-12-24T02:28:52.454Z,5.97
2018-12-24T02:31:20.211Z,6.03
2018-12-24T02:33:48.334Z,6.03
2018-12-24T02:36:16.091Z,6.05
2018-12-24T02:38:43.986Z,6.05
2018-12-24T02:41:12.166Z,6.09
2018-12-24T02:43:40.244Z,6.09
2018-12-24T02:46:07.946Z,6.13
2018-12-24T02:48:35.765Z,6.13
2018-12-24T02:51:03.495Z,6.16
2018-12-24T02:53:31.984Z,6.16
2018-12-24T02:55:59.747Z,6.18
2018-12-24T02:58:27.504Z,6.18
2018-12-24T03:00:55.699Z,6.19
2018-12-24T03:03:23.818Z,6.17
2018-12-24T03:05:51.937Z,6.17
2018-12-24T03:08:19.777Z,6.19
2018-12-24T03:10:47.565Z,6.20
2018-12-24T03:13:15.611Z,6.20
2018-12-24T03:15:43.435Z,6.18
2018-12-24T03:18:11.224Z,6.18
2018-12-24T03:20:39.248Z,6.19
2018-12-24T03:23:07.086Z,6.20
2018-12-24T03:25:34.858Z,6.21
2018-12-24T03:28:04.049Z,6.20
2018-12-24T03:30:31.933Z,6.21
2018-12-24T03:32:59.759Z,6.23
2018-12-24T03:35:27.685Z,6.22
2018-12-24T03:37:55.727Z,6.22
2018-12-24T03:40:23.498Z,6.22
2018-12-24T03:42:51.321Z,6.25
2018-12-24T03:45:19.429Z,6.25
2018-12-24T03:47:47.515Z,6.26
2018-12-24T03:50:15.250Z,6.29
2018-12-24T03:52:45.441Z,6.29
2018-12-24T03:55:13.214Z,6.30
2018-12-24T03:57:40.962Z,6.30
2018-12-24T04:00:08.972Z,6.30
2018-12-24T04:02:36.913Z,6.30
2018-12-24T04:05:04.721Z,6.30
2018-12-24T04:07:32.911Z,6.30
2018-12-24T04:10:02.921Z,6.29
2018-12-24T04:12:30.975Z,6.29
2018-12-24T04:14:58.760Z,6.29
2018-12-24T04:17:26.648Z,6.29
2018-12-24T04:19:54.466Z,6.29
2018-12-24T04:22:22.579Z,6.29
2018-12-24T04:24:50.364Z,6.29
2018-12-24T04:27:18.169Z,6.29
2018-12-24T04:29:46.281Z,6.29
2018-12-24T04:32:14.021Z,6.29
2018-12-24T04:34:41.831Z,6.31
2018-12-24T04:37:09.596Z,6.31
2018-12-24T04:39:37.726Z,6.31
2018-12-24T04:42:05.497Z,6.30
2018-12-24T04:44:33.315Z,6.30
2018-12-24T04:47:01.055Z,6.30
2018-12-24T04:49:29.247Z,6.32
2018-12-24T04:51:57.055Z,6.31
2018-12-24T04:54:24.852Z,6.32
2018-12-24T04:56:52.670Z,6.33
2018-12-24T04:59:20.415Z,6.34
2018-12-24T05:01:48.186Z,6.33
2018-12-24T05:04:16.014Z,6.34
2018-12-24T05:06:44.140Z,6.34
2018-12-24T05:09:11.873Z,6.33
2018-12-24T05:11:39.679Z,6.34
2018-12-24T05:14:07.811Z,6.34
2018-12-24T05:16:35.867Z,6.34
2018-12-24T05:19:03.659Z,6.36
2018-12-24T05:21:31.409Z,6.36
2018-12-24T05:23:59.230Z,6.38
2018-12-24T05:26:27.052Z,6.38
2018-12-24T05:28:55.100Z,6.41
2018-12-24T05:31:22.947Z,6.40
2018-12-24T05:33:50.689Z,6.42
2018-12-24T05:36:18.480Z,6.42
2018-12-24T05:38:46.496Z,6.42
2018-12-24T05:41:14.352Z,6.42
2018-12-24T05:43:49.246Z,6.42
2018-12-24T05:46:12.122Z,6.41
2018-12-24T05:48:39.938Z,6.41
2018-12-24T05:51:07.754Z,6.41
2018-12-24T05:53:35.522Z,6.41
2018-12-24T05:56:03.612Z,6.41
2018-12-24T05:58:31.418Z,6.40
2018-12-24T06:00:59.242Z,6.40
2018-12-24T06:03:27.290Z,6.40
2018-12-24T06:05:58.876Z,6.39
2018-12-24T06:08:27.033Z,6.38
2018-12-24T06:10:55.826Z,6.38
2018-12-24T06:13:23.984Z,6.42
2018-12-24T06:15:51.821Z,6.42
2018-12-24T06:18:20.936Z,6.42
2018-12-24T06:20:48.661Z,6.43
2018-12-24T06:23:16.453Z,6.42
2018-12-24T06:25:44.179Z,6.43
2018-12-24T06:28:12.256Z,6.41
2018-12-24T06:30:40.006Z,6.41
2018-12-24T06:33:07.738Z,6.36
2018-12-24T06:35:35.542Z,6.36
2018-12-24T06:38:03.578Z,6.32
2018-12-24T06:40:31.390Z,6.29
2018-12-24T06:42:59.156Z,6.25
2018-12-24T06:45:27.349Z,6.25
2018-12-24T06:47:57.203Z,6.23
2018-12-24T06:50:24.950Z,6.21
2018-12-24T06:52:52.731Z,6.18
2018-12-24T06:55:20.837Z,6.18
2018-12-24T06:57:48.596Z,6.17
2018-12-24T07:00:16.710Z,6.16
2018-12-24T07:02:45.258Z,6.16
2018-12-24T07:05:13.493Z,6.16
2018-12-24T07:07:44.154Z,6.15
2018-12-24T07:10:12.230Z,6.15
2018-12-24T07:12:42.748Z,6.15
2018-12-24T07:15:16.432Z,6.14
2018-12-24T07:17:44.514Z,6.14
2018-12-24T07:20:13.335Z,6.13
2018-12-24T07:22:41.152Z,6.12
2018-12-24T07:25:09.011Z,6.10
2018-12-24T07:27:37.159Z,6.10
2018-12-24T07:30:04.928Z,6.10
2018-12-24T07:32:32.657Z,6.07
2018-12-24T07:35:00.476Z,6.07
2018-12-24T07:37:28.508Z,6.07
2018-12-24T07:39:56.365Z,6.06
2018-12-24T07:42:25.295Z,6.05
2018-12-24T07:44:55.853Z,6.05
2018-12-24T07:47:23.694Z,6.04
2018-12-24T07:49:51.550Z,6.07
2018-12-24T07:52:19.674Z,6.07
2018-12-24T07:54:47.613Z,6.06
2018-12-24T07:57:15.777Z,6.04
2018-12-24T07:59:43.932Z,6.04
2018-12-24T08:02:12.213Z,6.04
2018-12-24T08:04:40.016Z,6.05
2018-12-24T08:07:08.073Z,6.01
2018-12-24T08:09:35.850Z,6.01
2018-12-24T08:12:12.817Z,5.97
2018-12-24T08:14:43.565Z,5.93
2018-12-24T08:17:14.410Z,5.82
2018-12-24T08:19:42.157Z,5.70
2018-12-24T08:22:11.371Z,5.70
2018-12-24T08:24:39.139Z,5.62
2018-12-24T08:27:06.945Z,5.57
2018-12-24T08:29:36.205Z,5.52
2018-12-24T08:32:05.604Z,5.48
2018-12-24T08:34:33.375Z,5.35
2018-12-24T08:37:01.390Z,5.28
2018-12-24T08:39:30.495Z,5.28
2018-12-24T08:41:58.338Z,5.28
2018-12-24T08:44:26.354Z,5.30
2018-12-24T08:46:54.212Z,5.30
2018-12-24T08:49:22.284Z,5.31
2018-12-24T08:51:51.690Z,5.35
2018-12-24T08:54:19.426Z,5.40
2018-12-24T08:56:47.283Z,5.44
2018-12-24T08:59:18.674Z,5.52
2018-12-24T09:01:48.500Z,5.52
2018-12-24T09:04:16.353Z,5.59
2018-12-24T09:06:44.375Z,5.59
2018-12-24T09:09:12.178Z,5.61
2018-12-24T09:11:47.213Z,5.61
2018-12-24T09:14:15.335Z,5.63
2018-12-24T09:16:43.112Z,5.64
2018-12-24T09:19:12.874Z,5.64
2018-12-24T09:21:44.743Z,5.65
2018-12-24T09:24:15.176Z,5.64
2018-12-24T09:26:44.912Z,5.65
2018-12-24T09:29:12.653Z,5.64
2018-12-24T09:31:40.426Z,5.64
2018-12-24T09:34:08.685Z,5.66
2018-12-24T09:36:36.734Z,5.66
2018-12-24T09:39:05.486Z,5.64
2018-12-24T09:41:33.319Z,5.62
2018-12-24T09:44:01.443Z,5.59
2018-12-24T09:46:29.345Z,5.59
2018-12-24T09:48:59.377Z,5.57
2018-12-24T09:51:27.456Z,5.57
2018-12-24T09:53:55.311Z,5.46
2018-12-24T09:56:23.129Z,5.46
2018-12-24T09:58:56.554Z,5.80
2018-12-24T10:01:25.430Z,6.28
2018-12-24T10:04:02.863Z,6.39
2018-12-24T10:06:25.970Z,6.52
2018-12-24T10:08:54.069Z,6.98
2018-12-24T10:11:21.791Z,7.69
2018-12-24T10:13:49.663Z,7.89
2018-12-24T10:16:17.746Z,7.84
2018-12-24T10:18:47.839Z,7.73
2018-12-24T10:21:18.106Z,8.31
2018-12-24T10:23:49.187Z,7.98
2018-12-24T10:26:18.432Z,7.98
2018-12-24T10:28:47.842Z,7.84
2018-12-24T10:31:15.963Z,7.70
2018-12-24T10:33:43.735Z,8.25
2018-12-24T10:36:11.563Z,8.25
2018-12-24T10:38:39.616Z,8.12
2018-12-24T10:41:07.462Z,8.12
2018-12-24T10:43:35.278Z,7.46
2018-12-24T10:46:03.467Z,7.46
2018-12-24T10:48:31.657Z,7.84
2018-12-24T10:50:59.467Z,8.70
2018-12-24T10:53:27.510Z,9.47
2018-12-24T10:55:55.396Z,9.47
2018-12-24T10:58:23.129Z,9.62
2018-12-24T11:00:51.238Z,9.34
2018-12-24T11:03:19.225Z,9.31
2018-12-24T11:05:47.753Z,8.41
2018-12-24T11:08:15.911Z,8.41
2018-12-24T11:10:43.802Z,7.58
2018-12-24T11:13:13.422Z,7.58
2018-12-24T11:15:45.226Z,7.42
2018-12-24T11:18:13.124Z,7.29
2018-12-24T11:20:47.171Z,7.71
2018-12-24T11:23:13.787Z,7.71
2018-12-24T11:25:41.520Z,7.79
2018-12-24T11:28:12.268Z,7.79
2018-12-24T11:30:41.746Z,7.55
2018-12-24T11:33:11.653Z,7.37
2018-12-24T11:35:39.479Z,7.17
2018-12-24T11:38:07.591Z,6.97
2018-12-24T11:40:37.189Z,6.86
2018-12-24T11:43:06.333Z,7.16
2018-12-24T11:45:36.122Z,9.10
2018-12-24T11:48:06.253Z,9.24
2018-12-24T11:50:34.205Z,9.03
2018-12-24T11:53:05.292Z,9.03
2018-12-24T11:55:35.660Z,8.70
2018-12-24T11:58:13.288Z,8.42
2018-12-24T12:00:37.120Z,8.17
2018-12-24T12:03:07.318Z,7.79
2018-12-24T12:05:35.483Z,7.83
2018-12-24T12:08:03.330Z,7.94
2018-12-24T12:10:31.385Z,7.81
2018-12-24T12:12:59.472Z,7.51
2018-12-24T12:15:27.199Z,7.51
2018-12-24T12:17:55.006Z,7.32
2018-12-24T12:20:26.016Z,7.16
2018-12-24T12:22:55.628Z,6.92
2018-12-24T12:25:23.499Z,6.76
2018-12-24T12:27:54.529Z,6.74
2018-12-24T12:30:22.395Z,6.74
2018-12-24T12:32:50.247Z,7.09
2018-12-24T12:35:18.335Z,7.28
2018-12-24T12:37:46.297Z,7.20
2018-12-24T12:40:16.342Z,7.20
2018-12-24T12:42:44.409Z,7.10
2018-12-24T12:45:12.194Z,7.02
2018-12-24T12:47:40.034Z,6.94
2018-12-24T12:50:08.163Z,6.75
2018-12-24T12:52:37.071Z,6.70
2018-12-24T12:55:09.961Z,6.92
2018-12-24T12:57:38.504Z,6.92
2018-12-24T13:00:06.236Z,7.43
2018-12-24T13:02:34.097Z,7.43
2018-12-24T13:05:04.321Z,7.71
2018-12-24T13:07:37.941Z,7.79
2018-12-24T13:10:05.788Z,7.89
2018-12-24T13:12:33.903Z,8.03
2018-12-24T13:15:01.714Z,8.03
2018-12-24T13:17:29.632Z,7.86
2018-12-24T13:19:57.664Z,7.84
2018-12-24T13:22:25.819Z,7.72
2018-12-24T13:24:53.581Z,7.53
2018-12-24T13:27:22.779Z,7.31
2018-12-24T13:29:53.123Z,7.31
2018-12-24T13:32:23.841Z,7.34
2018-12-24T13:34:54.638Z,7.34
2018-12-24T13:37:22.368Z,7.65
2018-12-24T13:39:50.201Z,7.65
2018-12-24T13:42:18.259Z,7.68
2018-12-24T13:44:46.033Z,7.58
2018-12-24T13:47:13.827Z,7.15
2018-12-24T13:49:44.500Z,7.15
2018-12-24T13:52:12.781Z,7.04
2018-12-24T13:54:40.521Z,6.86
2018-12-24T13:57:10.255Z,6.86
2018-12-24T13:59:40.883Z,6.74
2018-12-24T14:02:09.656Z,6.54
2018-12-24T14:04:37.397Z,6.54
2018-12-24T14:07:07.135Z,6.40
2018-12-24T14:09:35.204Z,6.24
2018-12-24T14:12:03.055Z,5.96
2018-12-24T14:14:30.806Z,5.96
2018-12-24T14:17:01.035Z,5.99
2018-12-24T14:19:28.791Z,5.99
2018-12-24T14:21:56.579Z,6.21
2018-12-24T14:24:24.717Z,6.21
2018-12-24T14:26:52.836Z,6.29
2018-12-24T14:29:20.927Z,6.34
2018-12-24T14:31:49.017Z,6.33
2018-12-24T14:34:16.778Z,6.27
2018-12-24T14:36:44.552Z,6.21
2018-12-24T14:39:12.645Z,6.14
2018-12-24T14:41:43.095Z,6.14
2018-12-24T14:44:11.019Z,6.08
2018-12-24T14:46:42.184Z,5.99
2018-12-24T14:49:12.633Z,5.80
2018-12-24T14:51:40.471Z,5.80
2018-12-24T14:54:11.010Z,5.74
2018-12-24T14:56:38.759Z,5.67
2018-12-24T14:59:06.866Z,5.67
2018-12-24T15:01:34.664Z,5.61
2018-12-24T15:04:04.372Z,5.52
2018-12-24T15:06:32.427Z,5.42
2018-12-24T15:09:00.617Z,5.32
2018-12-24T15:11:28.340Z,5.20
2018-12-24T15:13:59.839Z,4.95
2018-12-24T15:16:34.023Z,4.95
2018-12-24T15:18:57.027Z,4.82
2018-12-24T15:21:25.055Z,4.61
2018-12-24T15:23:52.835Z,4.57
2018-12-24T15:26:20.624Z,4.57
2018-12-24T15:28:48.640Z,4.59
2018-12-24T15:31:16.509Z,4.57
2018-12-24T15:33:44.273Z,4.54
2018-12-24T15:36:12.029Z,4.54
2018-12-24T15:38:42.107Z,4.37
2018-12-24T15:41:12.834Z,4.37
2018-12-24T15:43:40.659Z,4.14
2018-12-24T15:46:08.400Z,4.01
2018-12-24T15:48:36.520Z,4.01
2018-12-24T15:51:04.242Z,3.78
2018-12-24T15:53:34.311Z,3.67
2018-12-24T15:56:11.431Z,3.67
2018-12-24T15:58:39.267Z,3.47
2018-12-24T16:01:07.053Z,3.47
2018-12-24T16:03:36.996Z,3.38
2018-12-24T16:06:07.289Z,3.33
2018-12-24T16:08:36.401Z,3.25
2018-12-24T16:11:08.002Z,3.25
2018-12-24T16:13:38.778Z,3.20
2018-12-24T16:16:06.808Z,3.15
2018-12-24T16:18:35.728Z,3.13
2018-12-24T16:21:03.494Z,3.17
2018-12-24T16:23:33.200Z,3.21
2018-12-24T16:26:03.468Z,3.21
2018-12-24T16:28:31.675Z,3.31
2018-12-24T16:30:59.748Z,3.38
2018-12-24T16:33:27.547Z,3.46
2018-12-24T16:36:01.440Z,3.52
2018-12-24T16:38:29.328Z,3.52
2018-12-24T16:40:57.158Z,3.58
2018-12-24T16:43:28.292Z,3.65
2018-12-24T16:45:59.006Z,3.72
2018-12-24T16:48:27.712Z,3.72
2018-12-24T16:50:55.793Z,3.75
2018-12-24T16:53:27.675Z,3.80
2018-12-24T16:55:55.513Z,3.84
2018-12-24T16:58:28.099Z,3.86
2018-12-24T17:00:59.904Z,3.87
2018-12-24T17:03:27.652Z,3.87
2018-12-24T17:05:59.922Z,3.89
2018-12-24T17:08:27.730Z,3.93
2018-12-24T17:10:56.774Z,3.93
2018-12-24T17:13:24.560Z,4.05
2018-12-24T17:15:52.275Z,4.09
2018-12-24T17:18:20.395Z,4.09
2018-12-24T17:20:52.522Z,4.16
2018-12-24T17:23:20.458Z,4.18
2018-12-24T17:25:48.514Z,4.12
2018-12-24T17:28:16.263Z,4.10
2018-12-24T17:30:44.102Z,4.10
2018-12-24T17:33:12.712Z,4.08
2018-12-24T17:35:42.166Z,4.09
2018-12-24T17:38:09.932Z,4.07
2018-12-24T17:40:38.057Z,4.07
2018-12-24T17:43:05.731Z,4.04
2018-12-24T17:45:38.904Z,4.02
2018-12-24T17:48:14.986Z,3.99
2018-12-24T17:50:42.485Z,3.91
2018-12-24T17:53:10.306Z,3.91
2018-12-24T17:55:38.081Z,3.91
2018-12-24T17:58:05.912Z,3.95
2018-12-24T18:00:33.977Z,3.97
2018-12-24T18:03:02.120Z,3.97
2018-12-24T18:05:32.760Z,3.98
2018-12-24T18:08:00.821Z,3.99
2018-12-24T18:10:46.009Z,3.99
2018-12-24T18:13:14.073Z,3.98
2018-12-24T18:15:41.950Z,3.98
2018-12-24T18:18:09.753Z,3.98
2018-12-24T18:20:37.789Z,3.98
2018-12-24T18:23:05.586Z,4.02
2018-12-24T18:25:37.094Z,4.02
2018-12-24T18:28:05.193Z,3.99
2018-12-24T18:30:34.352Z,3.99
2018-12-24T18:33:02.258Z,4.00
2018-12-24T18:35:30.694Z,3.97
2018-12-24T18:37:58.450Z,3.94
2018-12-24T18:40:27.807Z,3.94
2018-12-24T18:42:55.773Z,3.94
2018-12-24T18:45:23.597Z,3.96
2018-12-24T18:47:53.162Z,3.98
2018-12-24T18:50:21.218Z,3.97
2018-12-24T18:52:49.017Z,3.96
2018-12-24T18:55:16.832Z,3.97
2018-12-24T18:57:47.086Z,3.99
2018-12-24T19:00:15.209Z,4.03
2018-12-24T19:02:43.116Z,4.06
2018-12-24T19:05:10.857Z,4.06
2018-12-24T19:07:38.621Z,4.06
2018-12-24T19:10:06.433Z,4.08
2018-12-24T19:12:36.860Z,4.13
2018-12-24T19:15:04.658Z,4.13
2018-12-24T19:17:32.870Z,4.16
2018-12-24T19:20:02.824Z,4.21
2018-12-24T19:22:30.711Z,4.33
2018-12-24T19:24:58.456Z,4.39
2018-12-24T19:27:26.530Z,4.39
2018-12-24T19:29:57.328Z,4.42
2018-12-24T19:32:27.277Z,4.44
2018-12-24T19:35:01.394Z,4.44
2018-12-24T19:37:29.302Z,4.38
2018-12-24T19:39:57.056Z,4.38
2018-12-24T19:42:24.890Z,4.36
2018-12-24T19:44:54.156Z,4.39
2018-12-24T19:47:25.245Z,4.39
2018-12-24T19:49:52.943Z,4.46
2018-12-24T19:52:21.056Z,4.46
2018-12-24T19:54:49.078Z,4.51
2018-12-24T19:57:19.653Z,4.53
2018-12-24T19:59:47.312Z,4.53
2018-12-24T20:02:18.280Z,4.57
2018-12-24T20:04:47.471Z,4.62
2018-12-24T20:07:20.875Z,4.62
2018-12-24T20:09:49.653Z,4.66
2018-12-24T20:12:17.720Z,4.70
2018-12-24T20:14:46.527Z,4.70
2018-12-24T20:17:17.925Z,4.73
2018-12-24T20:19:45.663Z,4.75
2018-12-24T20:22:13.436Z,4.74
2018-12-24T20:24:41.287Z,4.77
2018-12-24T20:27:13.978Z,4.79
2018-12-24T20:29:42.053Z,4.78
2018-12-24T20:32:09.879Z,4.78
2018-12-24T20:34:40.396Z,4.78
2018-12-24T20:37:09.539Z,4.77
2018-12-24T20:39:58.967Z,4.77
2018-12-24T20:42:26.764Z,4.74
2018-12-24T20:44:56.180Z,4.74
2018-12-24T20:47:24.271Z,4.69
2018-12-24T20:49:52.029Z,4.67
2018-12-24T20:52:21.523Z,4.67
2018-12-24T20:54:52.408Z,4.67
2018-12-24T20:57:20.223Z,4.68
2018-12-24T20:59:47.970Z,4.68
2018-12-24T21:02:16.103Z,4.69
2018-12-24T21:04:46.873Z,4.67
2018-12-24T21:07:14.715Z,4.67
2018-12-24T21:09:46.800Z,4.67
2018-12-24T21:12:16.816Z,4.67
2018-12-24T21:14:46.370Z,4.65
2018-12-24T21:17:14.217Z,4.65
2018-12-24T21:19:44.302Z,4.64
2018-12-24T21:22:12.393Z,4.65
2018-12-24T21:24:40.972Z,4.65
2018-12-24T21:27:08.730Z,4.65
2018-12-24T21:29:37.064Z,4.68
2018-12-24T21:32:04.905Z,4.68
2018-12-24T21:34:32.752Z,4.70
2018-12-24T21:37:01.904Z,4.70
2018-12-24T21:39:30.832Z,4.71
2018-12-24T21:41:58.716Z,4.74
2018-12-24T21:44:26.696Z,4.75
2018-12-24T21:46:54.603Z,4.75
2018-12-24T21:49:25.392Z,4.77
2018-12-24T21:51:53.959Z,4.79
2018-12-24T21:54:21.823Z,4.79
2018-12-24T21:56:50.678Z,4.80
2018-12-24T21:59:21.172Z,4.82
2018-12-24T22:01:50.654Z,4.83
2018-12-24T22:04:18.408Z,4.83
2018-12-24T22:06:46.522Z,4.81
2018-12-24T22:09:16.552Z,4.80
2018-12-24T22:11:47.419Z,4.79
2018-12-24T22:14:20.156Z,4.81
2018-12-24T22:16:51.381Z,4.82
2018-12-24T22:19:22.838Z,4.82
2018-12-24T22:21:53.786Z,4.84
2018-12-24T22:24:21.664Z,4.83
2018-12-24T22:26:50.057Z,4.83
2018-12-24T22:29:18.124Z,4.83
2018-12-24T22:31:50.825Z,4.83
2018-12-24T22:34:18.927Z,4.82
2018-12-24T22:36:47.340Z,4.82
2018-12-24T22:39:15.103Z,4.82
2018-12-24T22:41:42.820Z,4.82
2018-12-24T22:44:10.924Z,4.82
2018-12-24T22:46:38.686Z,4.82
2018-12-24T22:49:06.563Z,4.84
2018-12-24T22:51:34.805Z,4.86
2018-12-24T22:54:02.585Z,4.86
2018-12-24T22:56:30.430Z,4.87
2018-12-24T22:59:00.242Z,4.89
2018-12-24T23:01:30.698Z,4.89
2018-12-24T23:03:58.565Z,4.91
2018-12-24T23:06:28.816Z,4.92
2018-12-24T23:08:56.684Z,4.94
2018-12-24T23:11:27.399Z,4.95
2018-12-24T23:13:55.442Z,4.95
2018-12-24T23:16:23.261Z,4.92
2018-12-24T23:18:51.303Z,4.92
2018-12-24T23:21:19.488Z,4.91
2018-12-24T23:23:51.923Z,4.87
2018-12-24T23:26:23.759Z,4.83
2018-12-24T23:28:51.717Z,4.83
2018-12-24T23:31:21.810Z,4.83
2018-12-24T23:33:49.620Z,4.83
2018-12-24T23:36:17.666Z,4.84
2018-12-24T23:38:45.483Z,4.85
2018-12-24T23:41:15.998Z,4.85
2018-12-24T23:43:44.128Z,4.88
2018-12-24T23:46:15.986Z,4.88
2018-12-24T23:48:41.366Z,4.88
2018-12-24T23:51:09.453Z,4.88
2018-12-24T23:53:37.252Z,4.90
2018-12-24T23:56:06.410Z,4.91
2018-12-24T23:58:35.181Z,4.91
